sensor_id;sensor_type;location;lat;lon;timestamp;P1;durP1;ratioP1;P2;durP2;ratioP2
4148;SDS011;2088;51.032;7.082;2022-09-21T00:01:43;4.73;;;1.80;;
4148;SDS011;2088;51.032;7.082;2022-09-21T00:04:09;2.50;;;1.70;;
4148;SDS011;2088;51.032;7.082;2022-09-21T00:06:36;3.00;;;2.00;;
4148;SDS011;2088;51.032;7.082;2022-09-21T00:09:02;2.30;;;1.40;;
4148;SDS011;2088;51.032;7.082;2022-09-21T00:11:30;3.20;;;2.90;;
4148;SDS011;2088;51.032;7.082;2022-09-21T00:13:59;3.47;;;1.33;;
4148;SDS011;2088;51.032;7.082;2022-09-21T00:16:28;2.70;;;1.50;;
4148;SDS011;2088;51.032;7.082;2022-09-21T00:18:57;12.87;;;1.67;;
4148;SDS011;2088;51.032;7.082;2022-09-21T00:21:24;3.60;;;1.90;;
4148;SDS011;2088;51.032;7.082;2022-09-21T00:23:52;2.70;;;1.43;;
4148;SDS011;2088;51.032;7.082;2022-09-21T00:26:20;5.23;;;1.90;;
4148;SDS011;2088;51.032;7.082;2022-09-21T00:28:50;4.73;;;2.30;;
4148;SDS011;2088;51.032;7.082;2022-09-21T00:31:18;4.83;;;1.67;;
4148;SDS011;2088;51.032;7.082;2022-09-21T00:33:45;6.80;;;2.27;;
4148;SDS011;2088;51.032;7.082;2022-09-21T00:36:14;1.83;;;1.73;;
4148;SDS011;2088;51.032;7.082;2022-09-21T00:38:42;3.43;;;2.43;;
4148;SDS011;2088;51.032;7.082;2022-09-21T00:41:10;1.80;;;1.40;;
4148;SDS011;2088;51.032;7.082;2022-09-21T00:43:39;4.63;;;2.00;;
4148;SDS011;2088;51.032;7.082;2022-09-21T00:46:10;7.63;;;2.20;;
4148;SDS011;2088;51.032;7.082;2022-09-21T00:48:42;3.50;;;1.90;;
4148;SDS011;2088;51.032;7.082;2022-09-21T00:51:10;3.13;;;1.57;;
4148;SDS011;2088;51.032;7.082;2022-09-21T00:53:40;2.77;;;1.67;;
4148;SDS011;2088;51.032;7.082;2022-09-21T00:56:06;1.80;;;1.70;;
4148;SDS011;2088;51.032;7.082;2022-09-21T00:58:36;2.60;;;2.10;;
4148;SDS011;2088;51.032;7.082;2022-09-21T01:01:05;3.27;;;1.53;;
4148;SDS011;2088;51.032;7.082;2022-09-21T01:03:32;5.47;;;2.63;;
4148;SDS011;2088;51.032;7.082;2022-09-21T01:05:59;4.07;;;2.40;;
4148;SDS011;2088;51.032;7.082;2022-09-21T01:08:25;3.00;;;1.73;;
4148;SDS011;2088;51.032;7.082;2022-09-21T01:11:02;5.80;;;3.20;;
4148;SDS011;2088;51.032;7.082;2022-09-21T01:13:50;1.43;;;1.23;;
4148;SDS011;2088;51.032;7.082;2022-09-21T01:16:33;6.73;;;1.77;;
4148;SDS011;2088;51.032;7.082;2022-09-21T01:19:09;3.67;;;2.27;;
4148;SDS011;2088;51.032;7.082;2022-09-21T01:21:49;3.90;;;2.20;;
4148;SDS011;2088;51.032;7.082;2022-09-21T01:24:28;1.90;;;1.73;;
4148;SDS011;2088;51.032;7.082;2022-09-21T01:27:27;16.97;;;2.10;;
4148;SDS011;2088;51.032;7.082;2022-09-21T01:30:16;9.70;;;2.20;;
4148;SDS011;2088;51.032;7.082;2022-09-21T01:32:45;4.50;;;2.40;;
4148;SDS011;2088;51.032;7.082;2022-09-21T01:35:18;2.10;;;1.80;;
4148;SDS011;2088;51.032;7.082;2022-09-21T01:37:52;1.60;;;1.50;;
4148;SDS011;2088;51.032;7.082;2022-09-21T01:40:22;2.00;;;1.80;;
4148;SDS011;2088;51.032;7.082;2022-09-21T01:42:53;10.43;;;2.20;;
4148;SDS011;2088;51.032;7.082;2022-09-21T01:45:25;4.30;;;2.60;;
4148;SDS011;2088;51.032;7.082;2022-09-21T01:47:55;3.63;;;2.50;;
4148;SDS011;2088;51.032;7.082;2022-09-21T01:50:24;3.20;;;2.53;;
4148;SDS011;2088;51.032;7.082;2022-09-21T01:52:55;5.63;;;2.77;;
4148;SDS011;2088;51.032;7.082;2022-09-21T01:55:33;2.20;;;1.30;;
4148;SDS011;2088;51.032;7.082;2022-09-21T01:58:06;3.20;;;1.73;;
4148;SDS011;2088;51.032;7.082;2022-09-21T02:00:38;2.60;;;1.40;;
4148;SDS011;2088;51.032;7.082;2022-09-21T02:03:08;2.57;;;2.37;;
4148;SDS011;2088;51.032;7.082;2022-09-21T02:05:39;2.00;;;1.80;;
4148;SDS011;2088;51.032;7.082;2022-09-21T02:08:07;9.13;;;2.23;;
4148;SDS011;2088;51.032;7.082;2022-09-21T02:10:35;2.70;;;1.80;;
4148;SDS011;2088;51.032;7.082;2022-09-21T02:13:07;3.63;;;3.30;;
4148;SDS011;2088;51.032;7.082;2022-09-21T02:15:37;4.40;;;2.10;;
4148;SDS011;2088;51.032;7.082;2022-09-21T02:18:16;1.50;;;1.40;;
4148;SDS011;2088;51.032;7.082;2022-09-21T02:20:55;4.67;;;1.80;;
4148;SDS011;2088;51.032;7.082;2022-09-21T02:23:24;2.93;;;1.53;;
4148;SDS011;2088;51.032;7.082;2022-09-21T02:25:58;2.83;;;2.53;;
4148;SDS011;2088;51.032;7.082;2022-09-21T02:28:32;4.53;;;1.93;;
4148;SDS011;2088;51.032;7.082;2022-09-21T02:31:08;4.60;;;2.13;;
4148;SDS011;2088;51.032;7.082;2022-09-21T02:33:40;2.30;;;1.80;;
4148;SDS011;2088;51.032;7.082;2022-09-21T02:36:14;3.40;;;1.77;;
4148;SDS011;2088;51.032;7.082;2022-09-21T02:38:48;12.73;;;1.40;;
4148;SDS011;2088;51.032;7.082;2022-09-21T02:41:19;2.40;;;1.70;;
4148;SDS011;2088;51.032;7.082;2022-09-21T02:43:53;2.20;;;2.00;;
4148;SDS011;2088;51.032;7.082;2022-09-21T02:46:29;2.07;;;1.93;;
4148;SDS011;2088;51.032;7.082;2022-09-21T02:48:59;4.10;;;2.27;;
4148;SDS011;2088;51.032;7.082;2022-09-21T02:51:31;5.37;;;1.70;;
4148;SDS011;2088;51.032;7.082;2022-09-21T02:54:01;2.60;;;1.93;;
4148;SDS011;2088;51.032;7.082;2022-09-21T02:56:29;4.80;;;1.57;;
4148;SDS011;2088;51.032;7.082;2022-09-21T02:58:58;2.90;;;2.40;;
4148;SDS011;2088;51.032;7.082;2022-09-21T03:01:29;6.30;;;3.10;;
4148;SDS011;2088;51.032;7.082;2022-09-21T03:03:57;2.17;;;1.93;;
4148;SDS011;2088;51.032;7.082;2022-09-21T03:06:23;8.33;;;2.13;;
4148;SDS011;2088;51.032;7.082;2022-09-21T03:08:50;5.97;;;1.83;;
4148;SDS011;2088;51.032;7.082;2022-09-21T03:11:16;4.23;;;2.83;;
4148;SDS011;2088;51.032;7.082;2022-09-21T03:13:43;4.80;;;1.73;;
4148;SDS011;2088;51.032;7.082;2022-09-21T03:16:10;4.53;;;1.80;;
4148;SDS011;2088;51.032;7.082;2022-09-21T03:18:39;4.53;;;2.70;;
4148;SDS011;2088;51.032;7.082;2022-09-21T03:21:08;11.57;;;4.40;;
4148;SDS011;2088;51.032;7.082;2022-09-21T03:23:34;4.90;;;2.80;;
4148;SDS011;2088;51.032;7.082;2022-09-21T03:26:01;6.23;;;2.20;;
4148;SDS011;2088;51.032;7.082;2022-09-21T03:28:27;5.80;;;3.03;;
4148;SDS011;2088;51.032;7.082;2022-09-21T03:30:54;3.73;;;1.40;;
4148;SDS011;2088;51.032;7.082;2022-09-21T03:33:20;2.87;;;1.73;;
4148;SDS011;2088;51.032;7.082;2022-09-21T03:35:48;1.60;;;1.50;;
4148;SDS011;2088;51.032;7.082;2022-09-21T03:38:15;5.87;;;2.20;;
4148;SDS011;2088;51.032;7.082;2022-09-21T03:40:43;2.40;;;1.97;;
4148;SDS011;2088;51.032;7.082;2022-09-21T03:43:10;2.63;;;1.73;;
4148;SDS011;2088;51.032;7.082;2022-09-21T03:45:36;3.87;;;2.27;;
4148;SDS011;2088;51.032;7.082;2022-09-21T03:48:06;2.20;;;2.00;;
4148;SDS011;2088;51.032;7.082;2022-09-21T03:50:34;2.60;;;2.40;;
4148;SDS011;2088;51.032;7.082;2022-09-21T03:53:02;2.97;;;2.40;;
4148;SDS011;2088;51.032;7.082;2022-09-21T03:55:28;8.43;;;1.80;;
4148;SDS011;2088;51.032;7.082;2022-09-21T03:57:55;3.10;;;2.17;;
4148;SDS011;2088;51.032;7.082;2022-09-21T04:00:21;2.43;;;2.23;;
4148;SDS011;2088;51.032;7.082;2022-09-21T04:02:48;1.97;;;1.30;;
4148;SDS011;2088;51.032;7.082;2022-09-21T04:05:14;5.87;;;3.00;;
4148;SDS011;2088;51.032;7.082;2022-09-21T04:07:42;3.90;;;1.90;;
4148;SDS011;2088;51.032;7.082;2022-09-21T04:10:12;3.30;;;2.43;;
4148;SDS011;2088;51.032;7.082;2022-09-21T04:12:40;2.40;;;2.20;;
4148;SDS011;2088;51.032;7.082;2022-09-21T04:15:08;3.40;;;2.43;;
4148;SDS011;2088;51.032;7.082;2022-09-21T04:17:35;2.83;;;2.60;;
4148;SDS011;2088;51.032;7.082;2022-09-21T04:20:02;2.73;;;2.47;;
4148;SDS011;2088;51.032;7.082;2022-09-21T04:22:29;3.20;;;2.43;;
4148;SDS011;2088;51.032;7.082;2022-09-21T04:24:55;5.60;;;2.43;;
4148;SDS011;2088;51.032;7.082;2022-09-21T04:27:23;5.53;;;3.17;;
4148;SDS011;2088;51.032;7.082;2022-09-21T04:29:50;4.40;;;2.53;;
4148;SDS011;2088;51.032;7.082;2022-09-21T04:32:16;3.67;;;2.73;;
4148;SDS011;2088;51.032;7.082;2022-09-21T04:34:43;3.73;;;2.77;;
4148;SDS011;2088;51.032;7.082;2022-09-21T04:37:09;6.20;;;3.97;;
4148;SDS011;2088;51.032;7.082;2022-09-21T04:39:36;2.07;;;1.97;;
4148;SDS011;2088;51.032;7.082;2022-09-21T04:42:03;3.70;;;3.40;;
4148;SDS011;2088;51.032;7.082;2022-09-21T04:44:30;3.70;;;2.57;;
4148;SDS011;2088;51.032;7.082;2022-09-21T04:46:57;12.03;;;3.40;;
4148;SDS011;2088;51.032;7.082;2022-09-21T04:49:24;3.37;;;2.30;;
4148;SDS011;2088;51.032;7.082;2022-09-21T04:51:50;6.90;;;2.33;;
4148;SDS011;2088;51.032;7.082;2022-09-21T04:54:17;4.10;;;3.63;;
4148;SDS011;2088;51.032;7.082;2022-09-21T04:56:43;4.20;;;2.43;;
4148;SDS011;2088;51.032;7.082;2022-09-21T04:59:10;8.10;;;3.20;;
4148;SDS011;2088;51.032;7.082;2022-09-21T05:01:37;4.80;;;3.10;;
4148;SDS011;2088;51.032;7.082;2022-09-21T05:04:04;2.90;;;2.70;;
4148;SDS011;2088;51.032;7.082;2022-09-21T05:06:31;5.00;;;4.07;;
4148;SDS011;2088;51.032;7.082;2022-09-21T05:08:58;7.60;;;3.50;;
4148;SDS011;2088;51.032;7.082;2022-09-21T05:11:43;10.40;;;3.60;;
4148;SDS011;2088;51.032;7.082;2022-09-21T05:14:11;3.20;;;2.73;;
4148;SDS011;2088;51.032;7.082;2022-09-21T05:16:39;5.00;;;3.60;;
4148;SDS011;2088;51.032;7.082;2022-09-21T05:19:05;3.80;;;3.43;;
4148;SDS011;2088;51.032;7.082;2022-09-21T05:21:32;5.40;;;3.80;;
4148;SDS011;2088;51.032;7.082;2022-09-21T05:23:58;6.83;;;3.97;;
4148;SDS011;2088;51.032;7.082;2022-09-21T05:26:24;4.97;;;4.27;;
4148;SDS011;2088;51.032;7.082;2022-09-21T05:28:51;4.13;;;3.60;;
4148;SDS011;2088;51.032;7.082;2022-09-21T05:31:24;2.80;;;2.60;;
4148;SDS011;2088;51.032;7.082;2022-09-21T05:33:58;19.73;;;4.80;;
4148;SDS011;2088;51.032;7.082;2022-09-21T05:36:34;6.03;;;3.77;;
4148;SDS011;2088;51.032;7.082;2022-09-21T05:39:08;4.17;;;3.77;;
4148;SDS011;2088;51.032;7.082;2022-09-21T05:41:35;4.40;;;3.07;;
4148;SDS011;2088;51.032;7.082;2022-09-21T05:44:02;4.33;;;3.90;;
4148;SDS011;2088;51.032;7.082;2022-09-21T05:46:32;4.37;;;3.17;;
4148;SDS011;2088;51.032;7.082;2022-09-21T05:49:05;3.00;;;2.70;;
4148;SDS011;2088;51.032;7.082;2022-09-21T05:51:42;5.03;;;3.23;;
4148;SDS011;2088;51.032;7.082;2022-09-21T05:54:14;4.17;;;2.37;;
4148;SDS011;2088;51.032;7.082;2022-09-21T05:56:47;6.30;;;3.63;;
4148;SDS011;2088;51.032;7.082;2022-09-21T05:59:26;3.00;;;2.80;;
4148;SDS011;2088;51.032;7.082;2022-09-21T06:02:15;3.73;;;3.40;;
4148;SDS011;2088;51.032;7.082;2022-09-21T06:04:48;5.40;;;4.03;;
4148;SDS011;2088;51.032;7.082;2022-09-21T06:07:18;4.13;;;3.10;;
4148;SDS011;2088;51.032;7.082;2022-09-21T06:09:44;3.93;;;3.30;;
4148;SDS011;2088;51.032;7.082;2022-09-21T06:12:11;3.17;;;2.97;;
4148;SDS011;2088;51.032;7.082;2022-09-21T06:14:37;7.20;;;2.70;;
4148;SDS011;2088;51.032;7.082;2022-09-21T06:17:04;4.03;;;2.70;;
4148;SDS011;2088;51.032;7.082;2022-09-21T06:19:30;4.80;;;3.03;;
4148;SDS011;2088;51.032;7.082;2022-09-21T06:21:58;7.17;;;3.27;;
4148;SDS011;2088;51.032;7.082;2022-09-21T06:24:24;4.40;;;3.83;;
4148;SDS011;2088;51.032;7.082;2022-09-21T06:26:51;8.20;;;3.07;;
4148;SDS011;2088;51.032;7.082;2022-09-21T06:29:17;15.73;;;3.40;;
4148;SDS011;2088;51.032;7.082;2022-09-21T06:31:47;6.53;;;3.80;;
4148;SDS011;2088;51.032;7.082;2022-09-21T06:34:14;3.03;;;2.70;;
4148;SDS011;2088;51.032;7.082;2022-09-21T06:36:40;4.40;;;2.30;;
4148;SDS011;2088;51.032;7.082;2022-09-21T06:39:08;3.77;;;2.87;;
4148;SDS011;2088;51.032;7.082;2022-09-21T06:41:34;4.90;;;2.63;;
4148;SDS011;2088;51.032;7.082;2022-09-21T06:44:01;5.63;;;3.87;;
4148;SDS011;2088;51.032;7.082;2022-09-21T06:46:28;5.23;;;3.20;;
4148;SDS011;2088;51.032;7.082;2022-09-21T06:48:54;6.57;;;4.13;;
4148;SDS011;2088;51.032;7.082;2022-09-21T06:51:21;2.77;;;2.20;;
4148;SDS011;2088;51.032;7.082;2022-09-21T06:53:48;5.80;;;4.10;;
4148;SDS011;2088;51.032;7.082;2022-09-21T06:56:15;9.17;;;2.70;;
4148;SDS011;2088;51.032;7.082;2022-09-21T06:58:42;4.93;;;3.50;;
4148;SDS011;2088;51.032;7.082;2022-09-21T07:01:10;3.97;;;3.03;;
4148;SDS011;2088;51.032;7.082;2022-09-21T07:03:38;4.00;;;3.10;;
4148;SDS011;2088;51.032;7.082;2022-09-21T07:06:06;3.00;;;2.80;;
4148;SDS011;2088;51.032;7.082;2022-09-21T07:08:35;4.10;;;3.70;;
4148;SDS011;2088;51.032;7.082;2022-09-21T07:11:04;5.57;;;2.77;;
4148;SDS011;2088;51.032;7.082;2022-09-21T07:13:32;3.07;;;2.80;;
4148;SDS011;2088;51.032;7.082;2022-09-21T07:16:01;3.00;;;2.43;;
4148;SDS011;2088;51.032;7.082;2022-09-21T07:18:29;3.17;;;2.70;;
4148;SDS011;2088;51.032;7.082;2022-09-21T07:20:55;3.47;;;2.47;;
4148;SDS011;2088;51.032;7.082;2022-09-21T07:23:21;14.27;;;2.40;;
4148;SDS011;2088;51.032;7.082;2022-09-21T07:25:48;4.30;;;2.97;;
4148;SDS011;2088;51.032;7.082;2022-09-21T07:28:16;4.00;;;2.63;;
4148;SDS011;2088;51.032;7.082;2022-09-21T07:30:45;11.80;;;3.90;;
4148;SDS011;2088;51.032;7.082;2022-09-21T07:33:11;6.17;;;4.17;;
4148;SDS011;2088;51.032;7.082;2022-09-21T07:35:37;7.10;;;2.90;;
4148;SDS011;2088;51.032;7.082;2022-09-21T07:38:04;5.77;;;3.93;;
4148;SDS011;2088;51.032;7.082;2022-09-21T07:40:32;6.13;;;3.63;;
4148;SDS011;2088;51.032;7.082;2022-09-21T07:42:59;5.17;;;3.73;;
4148;SDS011;2088;51.032;7.082;2022-09-21T07:45:27;9.30;;;4.53;;
4148;SDS011;2088;51.032;7.082;2022-09-21T07:47:55;10.73;;;3.47;;
4148;SDS011;2088;51.032;7.082;2022-09-21T07:50:21;4.40;;;3.27;;
4148;SDS011;2088;51.032;7.082;2022-09-21T07:52:48;2.40;;;2.20;;
4148;SDS011;2088;51.032;7.082;2022-09-21T07:55:14;3.20;;;2.90;;
4148;SDS011;2088;51.032;7.082;2022-09-21T07:57:41;3.33;;;2.37;;
4148;SDS011;2088;51.032;7.082;2022-09-21T08:00:25;2.50;;;2.30;;
4148;SDS011;2088;51.032;7.082;2022-09-21T08:02:54;2.83;;;1.93;;
4148;SDS011;2088;51.032;7.082;2022-09-21T08:05:21;3.17;;;2.07;;
4148;SDS011;2088;51.032;7.082;2022-09-21T08:07:47;10.50;;;3.43;;
4148;SDS011;2088;51.032;7.082;2022-09-21T08:10:14;2.10;;;1.53;;
4148;SDS011;2088;51.032;7.082;2022-09-21T08:12:41;4.00;;;2.90;;
4148;SDS011;2088;51.032;7.082;2022-09-21T08:15:08;2.73;;;2.53;;
4148;SDS011;2088;51.032;7.082;2022-09-21T08:17:36;1.70;;;1.40;;
4148;SDS011;2088;51.032;7.082;2022-09-21T08:20:05;14.50;;;2.77;;
4148;SDS011;2088;51.032;7.082;2022-09-21T08:22:32;3.40;;;2.30;;
4148;SDS011;2088;51.032;7.082;2022-09-21T08:24:58;1.73;;;1.60;;
4148;SDS011;2088;51.032;7.082;2022-09-21T08:27:25;1.83;;;1.60;;
4148;SDS011;2088;51.032;7.082;2022-09-21T08:29:51;2.67;;;2.10;;
4148;SDS011;2088;51.032;7.082;2022-09-21T08:32:18;6.60;;;2.10;;
4148;SDS011;2088;51.032;7.082;2022-09-21T08:34:44;6.37;;;3.53;;
4148;SDS011;2088;51.032;7.082;2022-09-21T08:37:12;4.43;;;2.57;;
4148;SDS011;2088;51.032;7.082;2022-09-21T08:39:39;6.97;;;1.97;;
4148;SDS011;2088;51.032;7.082;2022-09-21T08:42:15;4.07;;;3.20;;
4148;SDS011;2088;51.032;7.082;2022-09-21T08:44:55;4.70;;;3.33;;
4148;SDS011;2088;51.032;7.082;2022-09-21T08:47:26;2.90;;;1.60;;
4148;SDS011;2088;51.032;7.082;2022-09-21T08:50:00;3.20;;;2.17;;
4148;SDS011;2088;51.032;7.082;2022-09-21T08:52:30;2.77;;;1.67;;
4148;SDS011;2088;51.032;7.082;2022-09-21T08:54:58;2.07;;;1.53;;
4148;SDS011;2088;51.032;7.082;2022-09-21T08:57:28;1.70;;;1.57;;
4148;SDS011;2088;51.032;7.082;2022-09-21T08:59:56;9.03;;;2.40;;
4148;SDS011;2088;51.032;7.082;2022-09-21T09:02:37;2.40;;;1.43;;
4148;SDS011;2088;51.032;7.082;2022-09-21T09:05:13;3.43;;;1.63;;
4148;SDS011;2088;51.032;7.082;2022-09-21T09:08:04;5.30;;;2.10;;
4148;SDS011;2088;51.032;7.082;2022-09-21T09:10:43;2.60;;;2.40;;
4148;SDS011;2088;51.032;7.082;2022-09-21T09:13:26;7.03;;;1.93;;
4148;SDS011;2088;51.032;7.082;2022-09-21T09:16:02;11.33;;;3.17;;
4148;SDS011;2088;51.032;7.082;2022-09-21T09:18:38;2.40;;;2.00;;
4148;SDS011;2088;51.032;7.082;2022-09-21T09:21:10;7.40;;;2.87;;
4148;SDS011;2088;51.032;7.082;2022-09-21T09:23:44;6.63;;;2.63;;
4148;SDS011;2088;51.032;7.082;2022-09-21T09:26:16;2.83;;;1.03;;
4148;SDS011;2088;51.032;7.082;2022-09-21T09:28:47;1.40;;;1.00;;
4148;SDS011;2088;51.032;7.082;2022-09-21T09:31:17;1.87;;;1.10;;
4148;SDS011;2088;51.032;7.082;2022-09-21T09:33:47;1.20;;;0.90;;
4148;SDS011;2088;51.032;7.082;2022-09-21T09:36:21;2.53;;;1.33;;
4148;SDS011;2088;51.032;7.082;2022-09-21T09:38:55;1.50;;;1.17;;
4148;SDS011;2088;51.032;7.082;2022-09-21T09:41:27;1.90;;;0.80;;
4148;SDS011;2088;51.032;7.082;2022-09-21T09:44:10;1.23;;;1.13;;
4148;SDS011;2088;51.032;7.082;2022-09-21T09:46:48;1.60;;;1.07;;
4148;SDS011;2088;51.032;7.082;2022-09-21T09:49:27;1.00;;;0.87;;
4148;SDS011;2088;51.032;7.082;2022-09-21T09:52:03;1.83;;;1.10;;
4148;SDS011;2088;51.032;7.082;2022-09-21T09:54:33;5.80;;;1.20;;
4148;SDS011;2088;51.032;7.082;2022-09-21T09:57:00;1.13;;;0.83;;
4148;SDS011;2088;51.032;7.082;2022-09-21T09:59:29;5.53;;;1.10;;
4148;SDS011;2088;51.032;7.082;2022-09-21T10:02:01;3.70;;;0.90;;
4148;SDS011;2088;51.032;7.082;2022-09-21T10:04:29;1.30;;;0.63;;
4148;SDS011;2088;51.032;7.082;2022-09-21T10:06:58;2.33;;;1.30;;
4148;SDS011;2088;51.032;7.082;2022-09-21T10:09:26;7.53;;;1.30;;
4148;SDS011;2088;51.032;7.082;2022-09-21T10:11:55;2.13;;;0.93;;
4148;SDS011;2088;51.032;7.082;2022-09-21T10:14:25;4.43;;;2.30;;
4148;SDS011;2088;51.032;7.082;2022-09-21T10:16:54;1.67;;;1.00;;
4148;SDS011;2088;51.032;7.082;2022-09-21T10:19:25;2.60;;;0.90;;
4148;SDS011;2088;51.032;7.082;2022-09-21T10:21:54;1.00;;;0.70;;
4148;SDS011;2088;51.032;7.082;2022-09-21T10:24:23;1.20;;;0.70;;
4148;SDS011;2088;51.032;7.082;2022-09-21T10:26:54;2.57;;;0.80;;
4148;SDS011;2088;51.032;7.082;2022-09-21T10:29:28;3.40;;;0.80;;
4148;SDS011;2088;51.032;7.082;2022-09-21T10:31:57;1.20;;;0.77;;
4148;SDS011;2088;51.032;7.082;2022-09-21T10:34:25;2.63;;;0.83;;
4148;SDS011;2088;51.032;7.082;2022-09-21T10:36:54;16.00;;;1.40;;
4148;SDS011;2088;51.032;7.082;2022-09-21T10:39:23;2.60;;;0.90;;
4148;SDS011;2088;51.032;7.082;2022-09-21T10:41:53;3.23;;;0.80;;
4148;SDS011;2088;51.032;7.082;2022-09-21T10:44:25;0.97;;;0.77;;
4148;SDS011;2088;51.032;7.082;2022-09-21T10:46:58;1.00;;;0.70;;
4148;SDS011;2088;51.032;7.082;2022-09-21T10:49:29;3.83;;;1.63;;
4148;SDS011;2088;51.032;7.082;2022-09-21T10:51:56;0.80;;;0.60;;
4148;SDS011;2088;51.032;7.082;2022-09-21T10:54:24;1.10;;;0.97;;
4148;SDS011;2088;51.032;7.082;2022-09-21T10:56:53;1.20;;;0.90;;
4148;SDS011;2088;51.032;7.082;2022-09-21T10:59:25;3.63;;;1.27;;
4148;SDS011;2088;51.032;7.082;2022-09-21T11:01:54;1.00;;;0.90;;
4148;SDS011;2088;51.032;7.082;2022-09-21T11:04:24;1.20;;;1.10;;
4148;SDS011;2088;51.032;7.082;2022-09-21T11:06:57;1.00;;;0.60;;
4148;SDS011;2088;51.032;7.082;2022-09-21T11:09:31;1.40;;;0.60;;
4148;SDS011;2088;51.032;7.082;2022-09-21T11:12:05;2.93;;;0.80;;
4148;SDS011;2088;51.032;7.082;2022-09-21T11:14:44;3.47;;;1.43;;
4148;SDS011;2088;51.032;7.082;2022-09-21T11:17:18;2.90;;;0.97;;
4148;SDS011;2088;51.032;7.082;2022-09-21T11:19:56;3.23;;;0.83;;
4148;SDS011;2088;51.032;7.082;2022-09-21T11:22:33;1.50;;;1.17;;
4148;SDS011;2088;51.032;7.082;2022-09-21T11:25:07;1.43;;;0.73;;
4148;SDS011;2088;51.032;7.082;2022-09-21T11:27:55;1.60;;;1.20;;
4148;SDS011;2088;51.032;7.082;2022-09-21T11:30:30;1.00;;;0.60;;
4148;SDS011;2088;51.032;7.082;2022-09-21T11:33:10;1.53;;;0.80;;
4148;SDS011;2088;51.032;7.082;2022-09-21T11:35:51;1.07;;;0.60;;
4148;SDS011;2088;51.032;7.082;2022-09-21T11:38:32;1.97;;;0.93;;
4148;SDS011;2088;51.032;7.082;2022-09-21T11:41:13;1.37;;;0.60;;
4148;SDS011;2088;51.032;7.082;2022-09-21T11:44:02;2.90;;;0.63;;
4148;SDS011;2088;51.032;7.082;2022-09-21T11:46:43;4.63;;;0.60;;
4148;SDS011;2088;51.032;7.082;2022-09-21T11:49:30;1.50;;;0.70;;
4148;SDS011;2088;51.032;7.082;2022-09-21T11:52:14;1.00;;;0.50;;
4148;SDS011;2088;51.032;7.082;2022-09-21T11:54:56;2.60;;;0.60;;
4148;SDS011;2088;51.032;7.082;2022-09-21T11:57:30;1.10;;;0.60;;
4148;SDS011;2088;51.032;7.082;2022-09-21T12:00:04;1.10;;;0.50;;
4148;SDS011;2088;51.032;7.082;2022-09-21T12:02:51;1.10;;;0.70;;
4148;SDS011;2088;51.032;7.082;2022-09-21T12:05:39;6.83;;;1.27;;
4148;SDS011;2088;51.032;7.082;2022-09-21T12:08:22;1.00;;;0.50;;
4148;SDS011;2088;51.032;7.082;2022-09-21T12:11:05;3.80;;;1.23;;
4148;SDS011;2088;51.032;7.082;2022-09-21T12:13:39;1.10;;;0.60;;
4148;SDS011;2088;51.032;7.082;2022-09-21T12:16:16;1.30;;;0.70;;
4148;SDS011;2088;51.032;7.082;2022-09-21T12:18:52;2.10;;;0.60;;
4148;SDS011;2088;51.032;7.082;2022-09-21T12:21:24;1.10;;;0.60;;
4148;SDS011;2088;51.032;7.082;2022-09-21T12:23:54;1.10;;;0.70;;
4148;SDS011;2088;51.032;7.082;2022-09-21T12:26:23;2.50;;;0.70;;
4148;SDS011;2088;51.032;7.082;2022-09-21T12:28:52;1.00;;;0.60;;
4148;SDS011;2088;51.032;7.082;2022-09-21T12:31:25;1.00;;;0.70;;
4148;SDS011;2088;51.032;7.082;2022-09-21T12:33:58;1.20;;;0.70;;
4148;SDS011;2088;51.032;7.082;2022-09-21T12:36:28;1.40;;;0.90;;
4148;SDS011;2088;51.032;7.082;2022-09-21T12:39:02;2.80;;;0.90;;
4148;SDS011;2088;51.032;7.082;2022-09-21T12:41:36;2.40;;;0.60;;
4148;SDS011;2088;51.032;7.082;2022-09-21T12:44:13;1.80;;;0.60;;
4148;SDS011;2088;51.032;7.082;2022-09-21T12:46:44;1.37;;;0.60;;
4148;SDS011;2088;51.032;7.082;2022-09-21T12:49:18;2.60;;;0.70;;
4148;SDS011;2088;51.032;7.082;2022-09-21T12:51:49;1.20;;;0.70;;
4148;SDS011;2088;51.032;7.082;2022-09-21T12:54:22;2.33;;;2.10;;
4148;SDS011;2088;51.032;7.082;2022-09-21T12:56:56;3.70;;;2.10;;
4148;SDS011;2088;51.032;7.082;2022-09-21T12:59:32;1.00;;;0.60;;
4148;SDS011;2088;51.032;7.082;2022-09-21T13:02:12;1.20;;;0.70;;
4148;SDS011;2088;51.032;7.082;2022-09-21T13:04:49;2.17;;;0.80;;
4148;SDS011;2088;51.032;7.082;2022-09-21T13:10:28;1.30;;;0.80;;
4148;SDS011;2088;51.032;7.082;2022-09-21T13:13:03;1.00;;;0.63;;
4148;SDS011;2088;51.032;7.082;2022-09-21T13:15:41;1.43;;;1.27;;
4148;SDS011;2088;51.032;7.082;2022-09-21T13:18:17;1.63;;;0.70;;
4148;SDS011;2088;51.032;7.082;2022-09-21T13:20:48;4.53;;;1.57;;
4148;SDS011;2088;51.032;7.082;2022-09-21T13:23:19;2.47;;;1.10;;
4148;SDS011;2088;51.032;7.082;2022-09-21T13:25:57;1.00;;;0.70;;
4148;SDS011;2088;51.032;7.082;2022-09-21T13:28:38;4.47;;;0.90;;
4148;SDS011;2088;51.032;7.082;2022-09-21T13:34:05;0.90;;;0.80;;
4148;SDS011;2088;51.032;7.082;2022-09-21T13:37:12;1.70;;;0.90;;
4148;SDS011;2088;51.032;7.082;2022-09-21T13:39:55;2.37;;;0.97;;
4148;SDS011;2088;51.032;7.082;2022-09-21T13:49:26;2.37;;;0.80;;
4148;SDS011;2088;51.032;7.082;2022-09-21T13:51:58;1.10;;;0.70;;
4148;SDS011;2088;51.032;7.082;2022-09-21T13:54:29;1.10;;;0.60;;
4148;SDS011;2088;51.032;7.082;2022-09-21T13:57:00;1.60;;;1.30;;
4148;SDS011;2088;51.032;7.082;2022-09-21T13:59:31;2.93;;;0.90;;
4148;SDS011;2088;51.032;7.082;2022-09-21T14:02:00;1.70;;;0.63;;
4148;SDS011;2088;51.032;7.082;2022-09-21T14:04:30;1.47;;;0.70;;
4148;SDS011;2088;51.032;7.082;2022-09-21T14:07:01;1.43;;;0.70;;
4148;SDS011;2088;51.032;7.082;2022-09-21T14:09:33;1.20;;;0.60;;
4148;SDS011;2088;51.032;7.082;2022-09-21T14:12:05;1.80;;;0.70;;
4148;SDS011;2088;51.032;7.082;2022-09-21T14:14:37;2.50;;;0.80;;
4148;SDS011;2088;51.032;7.082;2022-09-21T14:17:18;1.00;;;0.70;;
4148;SDS011;2088;51.032;7.082;2022-09-21T14:20:02;2.30;;;0.60;;
4148;SDS011;2088;51.032;7.082;2022-09-21T14:22:35;1.00;;;0.70;;
4148;SDS011;2088;51.032;7.082;2022-09-21T14:25:28;1.50;;;0.80;;
4148;SDS011;2088;51.032;7.082;2022-09-21T14:28:13;1.37;;;0.83;;
4148;SDS011;2088;51.032;7.082;2022-09-21T14:30:46;1.00;;;0.80;;
4148;SDS011;2088;51.032;7.082;2022-09-21T14:33:21;1.37;;;1.00;;
4148;SDS011;2088;51.032;7.082;2022-09-21T14:35:52;1.97;;;1.03;;
4148;SDS011;2088;51.032;7.082;2022-09-21T14:38:21;1.87;;;0.70;;
4148;SDS011;2088;51.032;7.082;2022-09-21T14:40:51;4.77;;;1.27;;
4148;SDS011;2088;51.032;7.082;2022-09-21T14:43:24;7.00;;;1.00;;
4148;SDS011;2088;51.032;7.082;2022-09-21T14:46:02;1.23;;;0.80;;
4148;SDS011;2088;51.032;7.082;2022-09-21T14:48:42;8.57;;;0.97;;
4148;SDS011;2088;51.032;7.082;2022-09-21T14:51:17;3.63;;;0.93;;
4148;SDS011;2088;51.032;7.082;2022-09-21T14:53:57;1.00;;;0.70;;
4148;SDS011;2088;51.032;7.082;2022-09-21T14:56:44;2.00;;;0.80;;
4148;SDS011;2088;51.032;7.082;2022-09-21T14:59:31;3.20;;;1.43;;
4148;SDS011;2088;51.032;7.082;2022-09-21T15:02:12;4.43;;;0.80;;
4148;SDS011;2088;51.032;7.082;2022-09-21T15:04:57;1.30;;;0.90;;
4148;SDS011;2088;51.032;7.082;2022-09-21T15:07:37;1.00;;;0.77;;
4148;SDS011;2088;51.032;7.082;2022-09-21T15:10:29;1.20;;;0.80;;
4148;SDS011;2088;51.032;7.082;2022-09-21T15:13:21;1.87;;;0.90;;
4148;SDS011;2088;51.032;7.082;2022-09-21T15:18:50;1.10;;;0.80;;
4148;SDS011;2088;51.032;7.082;2022-09-21T15:21:27;1.20;;;0.70;;
4148;SDS011;2088;51.032;7.082;2022-09-21T15:23:56;1.97;;;0.73;;
4148;SDS011;2088;51.032;7.082;2022-09-21T15:26:25;1.10;;;0.73;;
4148;SDS011;2088;51.032;7.082;2022-09-21T15:28:56;2.43;;;0.70;;
4148;SDS011;2088;51.032;7.082;2022-09-21T15:31:24;1.27;;;0.73;;
4148;SDS011;2088;51.032;7.082;2022-09-21T15:33:57;2.93;;;0.70;;
4148;SDS011;2088;51.032;7.082;2022-09-21T15:36:24;1.20;;;0.70;;
4148;SDS011;2088;51.032;7.082;2022-09-21T15:38:52;1.33;;;0.60;;
4148;SDS011;2088;51.032;7.082;2022-09-21T15:41:36;1.43;;;0.70;;
4148;SDS011;2088;51.032;7.082;2022-09-21T15:44:11;1.10;;;0.60;;
4148;SDS011;2088;51.032;7.082;2022-09-21T15:46:39;1.70;;;0.60;;
4148;SDS011;2088;51.032;7.082;2022-09-21T15:49:08;2.50;;;0.80;;
4148;SDS011;2088;51.032;7.082;2022-09-21T15:51:37;5.60;;;0.70;;
4148;SDS011;2088;51.032;7.082;2022-09-21T15:54:07;1.00;;;0.57;;
4148;SDS011;2088;51.032;7.082;2022-09-21T15:56:38;1.40;;;0.70;;
4148;SDS011;2088;51.032;7.082;2022-09-21T15:59:11;6.40;;;1.60;;